createdAt,value
2023-07-03T00:02:26.231Z,11.88
2023-07-03T00:04:53.130Z,11.79
2023-07-03T00:07:20.543Z,11.75
2023-07-03T00:09:47.482Z,11.68
2023-07-03T00:12:14.157Z,11.61
2023-07-03T00:14:40.860Z,11.55
2023-07-03T00:17:10.784Z,11.51
2023-07-03T00:19:37.613Z,11.45
2023-07-03T00:22:04.556Z,11.40
2023-07-03T00:24:32.652Z,11.34
2023-07-03T00:26:59.820Z,11.30
2023-07-03T00:29:30.020Z,11.23
2023-07-03T00:31:56.746Z,11.20
2023-07-03T00:34:23.450Z,11.14
2023-07-03T00:36:50.107Z,11.09
2023-07-03T00:39:16.860Z,11.02
2023-07-03T00:41:43.816Z,11.00
2023-07-03T00:44:13.490Z,10.96
2023-07-03T00:46:41.999Z,10.92
2023-07-03T00:49:10.249Z,10.86
2023-07-03T00:51:39.995Z,10.83
2023-07-03T00:54:06.705Z,10.76
2023-07-03T00:56:33.420Z,10.71
2023-07-03T00:59:00.239Z,10.71
2023-07-03T01:01:38.208Z,10.68
2023-07-03T01:04:12.186Z,10.69
2023-07-03T01:06:47.543Z,10.72
2023-07-03T01:09:17.526Z,10.76
2023-07-03T01:11:45.694Z,10.85
2023-07-03T01:14:16.092Z,10.91
2023-07-03T01:16:43.579Z,11.04
2023-07-03T01:19:15.466Z,11.20
2023-07-03T01:21:52.677Z,11.33
2023-07-03T01:24:38.571Z,11.43
2023-07-03T01:27:07.095Z,11.50
2023-07-03T01:29:35.480Z,11.61
2023-07-03T01:32:05.379Z,11.72
2023-07-03T01:34:33.838Z,11.79
2023-07-03T01:37:02.273Z,11.92
2023-07-03T01:39:29.223Z,12.01
2023-07-03T01:41:57.602Z,12.05
2023-07-03T01:44:24.624Z,12.11
2023-07-03T01:46:51.953Z,12.19
2023-07-03T01:49:18.655Z,12.32
2023-07-03T01:52:04.451Z,12.43
2023-07-03T01:54:41.348Z,12.50
2023-07-03T01:57:12.086Z,12.56
2023-07-03T01:59:41.572Z,12.60
2023-07-03T02:02:16.730Z,12.65
2023-07-03T02:04:51.546Z,12.71
2023-07-03T02:07:19.236Z,12.71
2023-07-03T02:09:46.320Z,12.73
2023-07-03T02:12:12.973Z,12.74
2023-07-03T02:14:39.708Z,12.74
2023-07-03T02:17:09.582Z,12.77
2023-07-03T02:19:37.003Z,12.77
2023-07-03T02:22:04.233Z,12.81
2023-07-03T02:24:31.227Z,12.79
2023-07-03T02:26:57.888Z,12.80
2023-07-03T02:29:24.495Z,12.80
2023-07-03T02:31:51.269Z,12.84
2023-07-03T02:34:18.027Z,12.93
2023-07-03T02:36:47.312Z,12.95
2023-07-03T02:39:13.955Z,12.98
2023-07-03T02:41:40.783Z,13.07
2023-07-03T02:44:07.386Z,13.08
2023-07-03T02:46:34.099Z,13.10
2023-07-03T02:49:00.775Z,13.10
2023-07-03T02:51:27.421Z,13.15
2023-07-03T02:53:54.053Z,13.16
2023-07-03T02:56:20.782Z,13.19
2023-07-03T02:58:47.538Z,13.22
2023-07-03T03:01:14.378Z,13.22
2023-07-03T03:03:41.097Z,13.25
2023-07-03T03:06:07.825Z,13.35
2023-07-03T03:08:34.459Z,13.46
2023-07-03T03:11:01.517Z,13.49
2023-07-03T03:13:28.182Z,13.52
2023-07-03T03:15:55.807Z,13.65
2023-07-03T03:18:22.605Z,13.74
2023-07-03T03:20:49.246Z,13.86
2023-07-03T03:23:15.854Z,13.87
2023-07-03T03:25:43.667Z,13.91
2023-07-03T03:28:10.827Z,13.91
2023-07-03T03:30:37.548Z,13.96
2023-07-03T03:33:04.354Z,13.94
2023-07-03T03:35:31.030Z,13.97
2023-07-03T03:37:57.684Z,13.97
2023-07-03T03:40:24.322Z,13.97
2023-07-03T03:42:50.935Z,13.99
2023-07-03T03:45:18.545Z,14.00
2023-07-03T03:47:47.581Z,14.04
2023-07-03T03:50:14.460Z,14.04
2023-07-03T03:52:41.062Z,14.06
2023-07-03T03:55:08.056Z,14.09
2023-07-03T03:57:35.124Z,14.09
2023-07-03T04:00:01.774Z,14.11
2023-07-03T04:02:28.581Z,14.18
2023-07-03T04:04:55.308Z,14.23
2023-07-03T04:07:21.990Z,14.28
2023-07-03T04:09:48.574Z,14.37
2023-07-03T04:12:15.163Z,14.40
2023-07-03T04:14:43.903Z,14.51
2023-07-03T04:17:10.608Z,14.60
2023-07-03T04:19:37.355Z,14.62
2023-07-03T04:22:04.196Z,14.65
2023-07-03T04:24:30.851Z,14.68
2023-07-03T04:27:00.058Z,14.68
2023-07-03T04:29:26.706Z,14.73
2023-07-03T04:31:53.479Z,14.76
2023-07-03T04:34:20.124Z,14.88
2023-07-03T04:36:48.928Z,14.99
2023-07-03T04:39:15.769Z,15.00
2023-07-03T04:41:42.584Z,15.06
2023-07-03T04:44:13.328Z,15.07
2023-07-03T04:46:41.087Z,15.07
2023-07-03T04:49:08.692Z,15.09
2023-07-03T04:51:35.361Z,15.09
2023-07-03T04:54:02.305Z,15.10
2023-07-03T04:56:31.473Z,15.13
2023-07-03T04:58:58.269Z,15.22
2023-07-03T05:01:26.120Z,15.32
2023-07-03T05:03:53.036Z,15.41
2023-07-03T05:06:19.805Z,15.51
2023-07-03T05:08:48.022Z,15.65
2023-07-03T05:11:14.775Z,15.72
2023-07-03T05:13:41.507Z,15.81
2023-07-03T05:16:08.152Z,15.88
2023-07-03T05:18:34.841Z,15.97
2023-07-03T05:21:01.790Z,16.01
2023-07-03T05:23:28.451Z,16.13
2023-07-03T05:25:55.018Z,16.29
2023-07-03T05:28:21.668Z,16.28
2023-07-03T05:30:57.463Z,16.33
2023-07-03T05:33:24.856Z,16.29
2023-07-03T05:35:54.539Z,16.22
2023-07-03T05:38:22.112Z,16.23
2023-07-03T05:40:51.468Z,16.30
2023-07-03T05:43:19.458Z,16.36
2023-07-03T05:45:49.108Z,16.34
2023-07-03T05:48:16.856Z,16.50
2023-07-03T05:50:44.627Z,16.90
2023-07-03T05:53:11.244Z,17.03
2023-07-03T05:55:37.947Z,17.34
2023-07-03T05:58:05.038Z,17.38
2023-07-03T06:00:34.430Z,17.58
2023-07-03T06:03:01.910Z,17.59
2023-07-03T06:05:29.056Z,17.65
2023-07-03T06:07:55.683Z,17.93
2023-07-03T06:10:24.687Z,18.36
2023-07-03T06:12:51.302Z,18.17
2023-07-03T06:15:18.002Z,18.43
2023-07-03T06:17:45.308Z,18.79
2023-07-03T06:20:12.594Z,18.50
2023-07-03T06:22:42.088Z,18.62
2023-07-03T06:25:09.730Z,19.30
2023-07-03T06:27:36.473Z,18.75
2023-07-03T06:30:04.405Z,18.95
2023-07-03T06:32:31.186Z,18.85
2023-07-03T06:34:57.962Z,19.12
2023-07-03T06:37:24.620Z,19.16
2023-07-03T06:39:51.255Z,19.01
2023-07-03T06:42:18.005Z,18.91
2023-07-03T06:44:44.874Z,18.82
2023-07-03T06:47:11.575Z,18.69
2023-07-03T06:49:38.910Z,18.36
2023-07-03T06:52:06.189Z,18.76
2023-07-03T06:54:33.072Z,19.02
2023-07-03T06:57:01.051Z,18.55
2023-07-03T06:59:27.691Z,18.40
2023-07-03T07:01:54.378Z,18.64
2023-07-03T07:04:21.261Z,19.02
2023-07-03T07:06:49.529Z,18.73
2023-07-03T07:09:17.189Z,19.06
2023-07-03T07:11:43.868Z,20.81
2023-07-03T07:14:10.597Z,21.49
2023-07-03T07:16:38.238Z,21.55
2023-07-03T07:19:08.800Z,22.87
2023-07-03T07:21:39.276Z,22.91
2023-07-03T07:24:32.104Z,21.15
2023-07-03T07:27:00.771Z,20.10
2023-07-03T07:29:27.733Z,19.88
2023-07-03T07:31:56.543Z,19.32
2023-07-03T07:34:23.854Z,19.61
2023-07-03T07:36:51.045Z,20.00
2023-07-03T07:39:21.161Z,21.24
2023-07-03T07:41:48.117Z,20.83
2023-07-03T07:44:14.760Z,22.60
2023-07-03T07:46:41.478Z,21.10
2023-07-03T07:49:09.981Z,20.08
2023-07-03T07:51:37.235Z,20.01
2023-07-03T07:54:04.363Z,20.43
2023-07-03T07:56:34.026Z,20.48
2023-07-03T07:59:01.168Z,20.84
2023-07-03T08:01:28.338Z,21.75
2023-07-03T08:03:55.046Z,22.02
2023-07-03T08:06:21.734Z,21.85
2023-07-03T08:08:49.848Z,22.00
2023-07-03T08:11:16.544Z,22.02
2023-07-03T08:13:43.267Z,21.85
2023-07-03T08:16:11.957Z,21.89
2023-07-03T08:18:38.791Z,21.62
2023-07-03T08:21:05.706Z,21.27
2023-07-03T08:23:32.766Z,20.79
2023-07-03T08:26:01.286Z,22.83
2023-07-03T08:28:28.204Z,24.34
2023-07-03T08:30:54.959Z,25.84
2023-07-03T08:33:21.921Z,26.64
2023-07-03T08:38:18.202Z,25.88
2023-07-03T08:40:44.970Z,26.93
2023-07-03T08:43:17.271Z,27.11
2023-07-03T08:45:46.257Z,27.56
2023-07-03T08:48:23.139Z,26.90
2023-07-03T08:50:54.161Z,26.55
2023-07-03T08:53:27.225Z,27.33
2023-07-03T08:56:02.199Z,28.07
2023-07-03T08:58:29.006Z,25.71
2023-07-03T09:01:06.345Z,27.86
2023-07-03T09:03:50.617Z,25.77
2023-07-03T09:06:29.991Z,24.75
2023-07-03T09:08:59.339Z,23.80
2023-07-03T09:11:28.894Z,22.97
2023-07-03T09:13:59.865Z,22.77
2023-07-03T09:16:26.613Z,21.86
2023-07-03T09:19:18.048Z,21.24
2023-07-03T09:21:45.456Z,21.48
2023-07-03T09:24:28.545Z,20.89
2023-07-03T09:27:10.872Z,21.23
2023-07-03T09:29:39.120Z,21.30
2023-07-03T09:32:06.260Z,21.88
2023-07-03T09:34:59.531Z,22.29
2023-07-03T09:37:26.271Z,21.92
2023-07-03T09:39:53.282Z,22.23
2023-07-03T09:42:21.797Z,22.37
2023-07-03T09:44:50.271Z,23.88
2023-07-03T09:47:23.397Z,22.20
2023-07-03T09:49:50.372Z,22.23
2023-07-03T09:52:17.726Z,23.05
2023-07-03T09:54:47.299Z,23.32
2023-07-03T09:57:40.235Z,23.80
2023-07-03T10:00:11.874Z,23.69
2023-07-03T10:07:44.907Z,23.59
2023-07-03T10:12:57.253Z,23.86
2023-07-03T10:15:31.293Z,24.16
2023-07-03T10:18:20.585Z,23.67
2023-07-03T10:20:49.383Z,22.94
2023-07-03T10:23:31.755Z,22.50
2023-07-03T10:26:05.807Z,21.99
2023-07-03T10:28:42.594Z,22.48
2023-07-03T10:31:21.709Z,22.06
2023-07-03T10:33:50.962Z,22.51
2023-07-03T10:36:22.610Z,21.98
2023-07-03T10:39:17.115Z,22.06
2023-07-03T10:41:49.065Z,21.37
2023-07-03T10:44:31.433Z,21.35
2023-07-03T10:47:00.070Z,21.31
2023-07-03T10:49:31.410Z,21.98
2023-07-03T10:52:16.905Z,22.57
2023-07-03T10:54:56.364Z,23.02
2023-07-03T10:57:34.587Z,22.72
2023-07-03T11:00:08.282Z,22.43
2023-07-03T11:03:00.080Z,21.55
2023-07-03T11:05:36.318Z,21.44
2023-07-03T11:08:24.631Z,20.90
2023-07-03T11:11:07.765Z,20.93
2023-07-03T11:13:58.205Z,20.84
2023-07-03T11:16:35.310Z,20.94
2023-07-03T11:24:59.393Z,22.48
2023-07-03T11:30:08.635Z,22.39
2023-07-03T11:32:35.974Z,21.63
2023-07-03T11:40:38.881Z,22.30
2023-07-03T11:43:29.946Z,22.56
2023-07-03T11:45:59.596Z,22.75
2023-07-03T11:48:29.450Z,23.07
2023-07-03T11:51:00.108Z,23.71
2023-07-03T11:53:34.617Z,24.01
2023-07-03T11:56:02.839Z,25.19
2023-07-03T11:58:31.550Z,24.69
2023-07-03T12:01:27.542Z,23.84
2023-07-03T12:03:55.465Z,23.05
2023-07-03T12:06:48.703Z,22.46
2023-07-03T12:09:31.945Z,21.82
2023-07-03T12:12:01.686Z,21.69
2023-07-03T12:14:45.226Z,21.55
2023-07-03T12:17:23.480Z,21.18
2023-07-03T12:19:53.960Z,21.51
2023-07-03T12:22:23.517Z,21.32
2023-07-03T12:25:10.634Z,20.80
2023-07-03T12:27:39.630Z,20.52
2023-07-03T12:30:21.833Z,20.38
2023-07-03T12:32:53.819Z,20.24
2023-07-03T12:35:24.652Z,19.98
2023-07-03T12:37:57.835Z,20.12
2023-07-03T12:40:25.630Z,20.26
2023-07-03T12:42:59.095Z,20.28
2023-07-03T12:45:31.060Z,20.52
2023-07-03T12:48:11.720Z,20.97
2023-07-03T12:50:55.018Z,21.77
2023-07-03T12:53:22.923Z,22.47
2023-07-03T12:55:57.515Z,23.84
2023-07-03T12:58:25.543Z,23.25
2023-07-03T13:01:07.410Z,24.54
2023-07-03T13:03:39.710Z,23.42
2023-07-03T13:06:26.511Z,23.63
2023-07-03T13:08:53.786Z,24.59
2023-07-03T13:11:35.343Z,23.67
2023-07-03T13:14:18.469Z,24.27
2023-07-03T13:16:48.895Z,22.63
2023-07-03T13:19:35.336Z,23.22
2023-07-03T13:22:05.924Z,23.20
2023-07-03T13:24:32.755Z,23.05
2023-07-03T13:26:59.912Z,23.57
2023-07-03T13:29:33.532Z,23.90
2023-07-03T13:32:19.217Z,24.79
2023-07-03T13:34:59.040Z,24.62
2023-07-03T13:37:28.754Z,23.70
2023-07-03T13:40:01.308Z,23.93
2023-07-03T13:42:30.198Z,24.69
2023-07-03T13:44:56.778Z,24.96
2023-07-03T13:47:25.091Z,24.38
2023-07-03T13:49:54.304Z,24.29
2023-07-03T13:52:20.978Z,23.23
2023-07-03T13:54:47.599Z,23.45
2023-07-03T13:57:14.211Z,23.02
2023-07-03T13:59:40.849Z,23.73
2023-07-03T14:02:08.198Z,23.59
2023-07-03T14:04:34.906Z,23.76
2023-07-03T14:07:01.702Z,23.87
2023-07-03T14:09:28.296Z,23.09
2023-07-03T14:11:54.877Z,23.05
2023-07-03T14:14:21.505Z,22.63
2023-07-03T14:16:49.772Z,23.08
2023-07-03T14:19:16.474Z,22.78
2023-07-03T14:21:43.250Z,22.47
2023-07-03T14:24:10.476Z,21.93
2023-07-03T14:26:37.040Z,21.95
2023-07-03T14:29:03.680Z,21.96
2023-07-03T14:31:30.571Z,21.95
2023-07-03T14:33:57.189Z,21.54
2023-07-03T14:36:23.920Z,21.78
2023-07-03T14:38:50.795Z,21.69
2023-07-03T14:41:17.374Z,21.61
2023-07-03T14:43:43.976Z,21.48
2023-07-03T14:46:10.589Z,21.28
2023-07-03T14:48:37.253Z,21.28
2023-07-03T14:51:04.138Z,21.41
2023-07-03T14:53:30.999Z,21.62
2023-07-03T14:55:59.847Z,21.42
2023-07-03T14:58:27.824Z,21.81
2023-07-03T15:00:54.841Z,21.78
2023-07-03T15:03:21.814Z,22.27
2023-07-03T15:05:49.006Z,22.14
2023-07-03T15:08:16.335Z,21.90
2023-07-03T15:10:42.935Z,22.27
2023-07-03T15:13:09.681Z,22.88
2023-07-03T15:15:36.400Z,22.99
2023-07-03T15:18:04.302Z,22.77
2023-07-03T15:20:31.385Z,22.61
2023-07-03T15:22:58.073Z,22.88
2023-07-03T15:25:24.662Z,22.86
2023-07-03T15:27:51.322Z,22.64
2023-07-03T15:30:18.175Z,22.41
2023-07-03T15:32:50.403Z,22.64
2023-07-03T15:35:17.154Z,23.02
2023-07-03T15:37:43.955Z,23.07
2023-07-03T15:40:11.201Z,22.91
2023-07-03T15:42:39.173Z,22.24
2023-07-03T15:45:06.534Z,22.02
2023-07-03T15:47:37.892Z,21.85
2023-07-03T15:50:06.689Z,22.08
2023-07-03T15:52:33.679Z,22.29
2023-07-03T15:55:00.268Z,21.85
2023-07-03T15:57:28.364Z,21.93
2023-07-03T15:59:55.088Z,21.85
2023-07-03T16:02:21.894Z,21.68
2023-07-03T16:04:48.613Z,21.69
2023-07-03T16:07:16.279Z,21.57
2023-07-03T16:09:42.953Z,21.57
2023-07-03T16:12:09.591Z,21.58
2023-07-03T16:14:36.272Z,21.54
2023-07-03T16:17:02.996Z,21.90
2023-07-03T16:19:30.095Z,21.88
2023-07-03T16:21:56.894Z,21.71
2023-07-03T16:24:23.882Z,21.85
2023-07-03T16:26:50.540Z,21.90
2023-07-03T16:29:17.823Z,21.62
2023-07-03T16:31:46.462Z,21.78
2023-07-03T16:34:13.705Z,21.62
2023-07-03T16:36:40.380Z,21.28
2023-07-03T16:39:07.092Z,21.28
2023-07-03T16:41:37.694Z,21.17
2023-07-03T16:44:04.555Z,21.21
2023-07-03T16:46:31.662Z,21.24
2023-07-03T16:48:59.377Z,20.94
2023-07-03T16:51:27.757Z,20.94
2023-07-03T16:53:55.136Z,20.96
2023-07-03T16:56:27.994Z,20.80
2023-07-03T16:58:58.356Z,20.80
2023-07-03T17:01:26.963Z,20.66
2023-07-03T17:03:56.523Z,20.56
2023-07-03T17:06:32.757Z,20.36
2023-07-03T17:09:01.044Z,20.28
2023-07-03T17:11:28.134Z,20.22
2023-07-03T17:13:55.425Z,20.26
2023-07-03T17:16:22.432Z,20.26
2023-07-03T17:18:49.210Z,20.21
2023-07-03T17:21:16.111Z,20.24
2023-07-03T17:23:43.385Z,20.25
2023-07-03T17:26:11.970Z,20.12
2023-07-03T17:28:39.091Z,20.12
2023-07-03T17:31:06.182Z,20.17
2023-07-03T17:33:33.435Z,20.18
2023-07-03T17:36:02.386Z,20.07
2023-07-03T17:38:29.632Z,20.10
2023-07-03T17:40:56.266Z,20.04
2023-07-03T17:43:23.799Z,20.01
2023-07-03T17:45:53.411Z,20.05
2023-07-03T17:48:21.474Z,20.02
2023-07-03T17:50:48.172Z,20.10
2023-07-03T17:53:16.632Z,20.05
2023-07-03T17:55:43.899Z,19.94
2023-07-03T17:58:10.725Z,19.97
2023-07-03T18:00:37.352Z,19.91
2023-07-03T18:03:04.658Z,19.80
2023-07-03T18:05:35.491Z,19.64
2023-07-03T18:08:03.755Z,19.54
2023-07-03T18:10:31.840Z,19.47
2023-07-03T18:12:59.626Z,19.39
2023-07-03T18:15:39.279Z,19.33
2023-07-03T18:18:10.884Z,19.29
2023-07-03T18:20:37.608Z,19.32
2023-07-03T18:23:04.349Z,19.26
2023-07-03T18:25:31.076Z,19.30
2023-07-03T18:27:58.027Z,19.23
2023-07-03T18:30:24.738Z,19.20
2023-07-03T18:32:51.403Z,19.19
2023-07-03T18:35:18.160Z,19.13
2023-07-03T18:37:45.079Z,19.15
2023-07-03T18:40:11.940Z,19.13
2023-07-03T18:42:38.568Z,19.05
2023-07-03T18:45:05.859Z,19.02
2023-07-03T18:47:32.793Z,18.95
2023-07-03T18:50:00.129Z,18.89
2023-07-03T18:52:27.259Z,18.89
2023-07-03T18:54:53.925Z,18.84
2023-07-03T18:57:20.542Z,18.81
2023-07-03T18:59:48.091Z,18.78
2023-07-03T19:02:16.265Z,18.76
2023-07-03T19:04:44.663Z,18.76
2023-07-03T19:07:11.720Z,18.73
2023-07-03T19:09:38.316Z,18.69
2023-07-03T19:12:07.277Z,18.64
2023-07-03T19:14:34.373Z,18.55
2023-07-03T19:17:01.038Z,18.52
2023-07-03T19:19:27.819Z,18.50
2023-07-03T19:21:54.456Z,18.47
2023-07-03T19:24:21.122Z,18.41
2023-07-03T19:26:48.090Z,18.34
2023-07-03T19:29:14.856Z,18.30
2023-07-03T19:31:41.664Z,18.27
2023-07-03T19:34:08.353Z,18.27
2023-07-03T19:36:34.999Z,18.18
2023-07-03T19:39:02.020Z,18.07
2023-07-03T19:41:30.182Z,17.94
2023-07-03T19:43:57.163Z,17.90
2023-07-03T19:46:23.791Z,17.86
2023-07-03T19:48:50.532Z,17.76
2023-07-03T19:51:17.792Z,17.68
2023-07-03T19:53:44.559Z,17.56
2023-07-03T19:56:15.852Z,17.51
2023-07-03T19:58:43.533Z,17.42
2023-07-03T20:01:12.628Z,17.39
2023-07-03T20:03:40.110Z,17.36
2023-07-03T20:06:18.724Z,17.36
2023-07-03T20:08:47.374Z,17.27
2023-07-03T20:11:14.313Z,17.21
2023-07-03T20:13:41.055Z,17.14
2023-07-03T20:16:08.788Z,17.08
2023-07-03T20:18:35.773Z,17.06
2023-07-03T20:21:07.063Z,17.01
2023-07-03T20:23:34.877Z,16.94
2023-07-03T20:26:01.837Z,16.91
2023-07-03T20:28:28.745Z,16.85
2023-07-03T20:30:55.745Z,16.83
2023-07-03T20:33:22.913Z,16.79
2023-07-03T20:36:05.284Z,16.79
2023-07-03T20:38:32.825Z,16.73
2023-07-03T20:41:08.398Z,16.70
2023-07-03T20:43:36.337Z,16.69
2023-07-03T20:46:05.784Z,16.64
2023-07-03T20:48:33.105Z,16.60
2023-07-03T20:51:05.157Z,16.63
2023-07-03T20:53:51.288Z,16.57
2023-07-03T20:56:21.266Z,16.50
2023-07-03T20:58:51.628Z,16.49
2023-07-03T21:01:27.731Z,16.48
2023-07-03T21:03:56.143Z,16.46
2023-07-03T21:06:25.156Z,16.43
2023-07-03T21:08:52.317Z,16.42
2023-07-03T21:11:23.385Z,16.38
2023-07-03T21:13:52.412Z,16.33
2023-07-03T21:16:23.045Z,16.30
2023-07-03T21:18:51.110Z,16.32
2023-07-03T21:21:32.574Z,16.33
2023-07-03T21:24:02.206Z,16.33
2023-07-03T21:26:28.954Z,16.33
2023-07-03T21:28:55.715Z,16.30
2023-07-03T21:31:28.343Z,16.28
2023-07-03T21:33:55.150Z,16.21
2023-07-03T21:36:25.173Z,16.19
2023-07-03T21:38:54.273Z,16.18
2023-07-03T21:41:21.571Z,16.18
2023-07-03T21:43:56.482Z,16.12
2023-07-03T21:46:27.601Z,16.12
2023-07-03T21:48:58.600Z,16.11
2023-07-03T21:51:28.880Z,16.08
2023-07-03T21:53:55.780Z,16.06
2023-07-03T21:56:31.214Z,16.02
2023-07-03T21:59:02.361Z,16.02
2023-07-03T22:01:34.785Z,16.02
2023-07-03T22:04:03.398Z,16.01
2023-07-03T22:06:30.354Z,16.01
2023-07-03T22:08:58.020Z,16.01
2023-07-03T22:11:25.591Z,15.98
2023-07-03T22:13:52.485Z,16.05
2023-07-03T22:16:20.325Z,16.04
2023-07-03T22:18:47.936Z,16.04
2023-07-03T22:21:19.427Z,16.05
2023-07-03T22:23:50.599Z,16.02
2023-07-03T22:26:17.474Z,16.02
2023-07-03T22:28:44.102Z,16.04
2023-07-03T22:31:12.127Z,16.06
2023-07-03T22:33:39.374Z,16.06
2023-07-03T22:36:08.443Z,16.06
2023-07-03T22:38:35.191Z,16.06
2023-07-03T22:41:01.785Z,16.04
2023-07-03T22:43:29.856Z,16.02
2023-07-03T22:45:56.484Z,16.02
2023-07-03T22:48:23.374Z,16.04
2023-07-03T22:50:54.274Z,16.04
2023-07-03T22:53:21.699Z,16.02
2023-07-03T22:55:48.517Z,16.08
2023-07-03T22:58:15.220Z,16.05
2023-07-03T23:00:41.987Z,16.09
2023-07-03T23:03:10.062Z,16.11
2023-07-03T23:05:47.296Z,16.13
2023-07-03T23:08:15.613Z,16.21
2023-07-03T23:10:55.861Z,16.21
2023-07-03T23:13:24.580Z,16.18
2023-07-03T23:16:05.587Z,16.16
2023-07-03T23:18:33.579Z,16.13
2023-07-03T23:21:02.228Z,16.12
2023-07-03T23:23:32.148Z,16.11
2023-07-03T23:26:02.002Z,16.11
2023-07-03T23:28:35.877Z,16.09
2023-07-03T23:31:08.656Z,16.06
2023-07-03T23:33:35.438Z,16.06
2023-07-03T23:36:08.167Z,16.06
2023-07-03T23:38:35.708Z,16.11
2023-07-03T23:41:05.463Z,16.11
2023-07-03T23:43:33.562Z,16.11
2023-07-03T23:46:00.306Z,16.09
2023-07-03T23:48:28.217Z,16.08
2023-07-03T23:50:57.494Z,16.08
2023-07-03T23:53:25.860Z,16.04
2023-07-03T23:55:53.951Z,16.02
2023-07-03T23:58:23.035Z,16.02
